createdAt,value
2017-07-03T00:00:22.571Z,960.69
2017-07-03T00:01:28.518Z,960.70
2017-07-03T00:02:22.605Z,960.72
2017-07-03T00:03:22.878Z,960.74
2017-07-03T00:04:23.062Z,960.70
2017-07-03T00:05:23.210Z,960.73
2017-07-03T00:06:27.577Z,960.73
2017-07-03T00:07:27.844Z,960.79
2017-07-03T00:08:23.141Z,960.75
2017-07-03T00:09:27.510Z,960.71
2017-07-03T00:10:27.793Z,960.71
2017-07-03T00:11:28.074Z,960.72
2017-07-03T00:12:23.244Z,960.75
2017-07-03T00:13:27.524Z,960.76
2017-07-03T00:14:22.709Z,960.78
2017-07-03T00:15:28.033Z,960.76
2017-07-03T00:16:18.090Z,960.75
2017-07-03T00:17:22.965Z,960.79
2017-07-03T00:18:22.766Z,960.75
2017-07-03T00:19:28.058Z,960.76
2017-07-03T00:20:28.344Z,960.80
2017-07-03T00:21:27.750Z,960.77
2017-07-03T00:22:33.025Z,960.83
2017-07-03T00:23:28.326Z,960.80
2017-07-03T00:24:22.833Z,960.79
2017-07-03T00:25:22.988Z,960.81
2017-07-03T00:26:28.187Z,960.82
2017-07-03T00:27:22.287Z,960.83
2017-07-03T00:28:28.131Z,960.81
2017-07-03T00:29:28.407Z,960.86
2017-07-03T00:30:21.947Z,960.86
2017-07-03T00:31:18.181Z,960.85
2017-07-03T00:32:28.122Z,960.87
2017-07-03T00:33:23.321Z,960.85
2017-07-03T00:34:22.359Z,960.85
2017-07-03T00:35:27.926Z,960.89
2017-07-03T00:36:28.352Z,960.89
2017-07-03T00:37:23.441Z,960.86
2017-07-03T00:38:28.176Z,960.92
2017-07-03T00:39:23.357Z,960.88
2017-07-03T00:40:18.407Z,960.89
2017-07-03T00:41:27.696Z,960.89
2017-07-03T00:42:22.866Z,960.92
2017-07-03T00:43:23.098Z,960.92
2017-07-03T00:44:23.306Z,960.88
2017-07-03T00:45:24.810Z,960.88
2017-07-03T00:46:23.346Z,960.87
2017-07-03T00:47:22.828Z,960.89
2017-07-03T00:48:28.093Z,960.88
2017-07-03T00:49:28.352Z,960.91
2017-07-03T00:50:22.844Z,960.91
2017-07-03T00:51:23.129Z,960.87
2017-07-03T00:52:23.665Z,960.88
2017-07-03T00:53:23.084Z,960.88
2017-07-03T00:54:23.271Z,960.91
2017-07-03T00:55:27.565Z,960.83
2017-07-03T00:56:23.070Z,960.83
2017-07-03T00:57:29.129Z,960.88
2017-07-03T00:58:23.328Z,960.85
2017-07-03T00:59:27.616Z,960.88
2017-07-03T01:00:17.906Z,960.87
2017-07-03T01:01:32.895Z,960.87
2017-07-03T01:02:23.095Z,960.88
2017-07-03T01:03:23.284Z,960.85
2017-07-03T01:04:27.525Z,960.86
2017-07-03T01:05:23.045Z,960.86
2017-07-03T01:06:23.293Z,960.86
2017-07-03T01:07:22.353Z,960.85
2017-07-03T01:08:27.632Z,960.85
2017-07-03T01:09:28.044Z,960.87
2017-07-03T01:10:23.238Z,960.90
2017-07-03T01:11:22.238Z,960.84
2017-07-03T01:12:27.541Z,960.79
2017-07-03T01:13:22.084Z,960.83
2017-07-03T01:14:28.396Z,960.77
2017-07-03T01:15:27.723Z,960.78
2017-07-03T01:16:28.016Z,960.80
2017-07-03T01:17:28.458Z,960.80
2017-07-03T01:18:22.975Z,960.79
2017-07-03T01:19:23.137Z,960.82
2017-07-03T01:20:28.438Z,960.84
2017-07-03T01:21:27.839Z,960.82
2017-07-03T01:22:22.980Z,960.83
2017-07-03T01:23:23.167Z,960.78
2017-07-03T01:24:23.697Z,960.80
2017-07-03T01:25:27.996Z,960.78
2017-07-03T01:26:27.814Z,960.76
2017-07-03T01:27:28.229Z,960.76
2017-07-03T01:28:27.513Z,960.77
2017-07-03T01:29:22.667Z,960.74
2017-07-03T01:30:22.733Z,960.76
2017-07-03T01:31:33.022Z,960.72
2017-07-03T01:32:23.212Z,960.76
2017-07-03T01:33:27.505Z,960.77
2017-07-03T01:34:28.187Z,960.79
2017-07-03T01:35:28.489Z,960.74
2017-07-03T01:36:22.781Z,960.76
2017-07-03T01:37:28.081Z,960.77
2017-07-03T01:38:28.334Z,960.80
2017-07-03T01:39:27.679Z,960.76
2017-07-03T01:40:23.190Z,960.75
2017-07-03T01:41:28.642Z,960.75
2017-07-03T01:42:27.916Z,960.77
2017-07-03T01:43:22.921Z,960.78
2017-07-03T01:44:28.205Z,960.77
2017-07-03T01:45:27.503Z,960.78
2017-07-03T01:46:27.933Z,960.76
2017-07-03T01:47:28.238Z,960.74
2017-07-03T01:48:22.460Z,960.72
2017-07-03T01:49:22.938Z,960.74
2017-07-03T01:50:23.184Z,960.72
2017-07-03T01:51:28.540Z,960.68
2017-07-03T01:52:27.804Z,960.70
2017-07-03T01:53:23.137Z,960.69
2017-07-03T01:54:28.467Z,960.64
2017-07-03T01:55:22.975Z,960.72
2017-07-03T01:56:23.157Z,960.68
2017-07-03T01:57:23.181Z,960.68
2017-07-03T01:58:27.508Z,960.67
2017-07-03T01:59:27.813Z,960.68
2017-07-03T02:00:28.815Z,960.64
2017-07-03T02:01:32.912Z,960.65
2017-07-03T02:02:23.113Z,960.67
2017-07-03T02:03:23.131Z,960.64
2017-07-03T02:04:23.310Z,960.62
2017-07-03T02:05:27.599Z,960.65
2017-07-03T02:06:28.037Z,960.64
2017-07-03T02:07:23.214Z,960.62
2017-07-03T02:08:22.277Z,960.59
2017-07-03T02:09:22.275Z,960.63
2017-07-03T02:10:22.275Z,960.64
2017-07-03T02:11:23.174Z,960.61
2017-07-03T02:12:22.358Z,960.61
2017-07-03T02:13:23.085Z,960.61
2017-07-03T02:14:28.482Z,960.64
2017-07-03T02:15:22.716Z,960.64
2017-07-03T02:16:28.028Z,960.60
2017-07-03T02:17:28.448Z,960.60
2017-07-03T02:18:27.754Z,960.59
2017-07-03T02:19:28.947Z,960.61
2017-07-03T02:20:23.157Z,960.59
2017-07-03T02:21:28.512Z,960.57
2017-07-03T02:22:27.783Z,960.55
2017-07-03T02:23:27.661Z,960.60
2017-07-03T02:24:27.943Z,960.59
2017-07-03T02:25:23.133Z,960.60
2017-07-03T02:26:23.301Z,960.53
2017-07-03T02:27:22.817Z,960.59
2017-07-03T02:28:29.026Z,960.59
2017-07-03T02:29:18.534Z,960.56
2017-07-03T02:30:27.902Z,960.54
2017-07-03T02:31:23.059Z,960.59
2017-07-03T02:32:23.193Z,960.56
2017-07-03T02:33:27.517Z,960.57
2017-07-03T02:34:23.038Z,960.58
2017-07-03T02:35:23.233Z,960.60
2017-07-03T02:36:27.559Z,960.58
2017-07-03T02:37:23.078Z,960.57
2017-07-03T02:38:23.255Z,960.57
2017-07-03T02:39:27.566Z,960.59
2017-07-03T02:40:23.080Z,960.58
2017-07-03T02:41:23.236Z,960.57
2017-07-03T02:42:27.509Z,960.62
2017-07-03T02:43:22.694Z,960.58
2017-07-03T02:44:23.265Z,960.59
2017-07-03T02:45:27.542Z,960.64
2017-07-03T02:46:22.709Z,960.62
2017-07-03T02:47:22.867Z,960.64
2017-07-03T02:48:23.084Z,960.63
2017-07-03T02:49:23.337Z,960.63
2017-07-03T02:50:22.854Z,960.62
2017-07-03T02:51:23.077Z,960.61
2017-07-03T02:52:23.595Z,960.62
2017-07-03T02:53:23.055Z,960.63
2017-07-03T02:54:23.075Z,960.66
2017-07-03T02:55:28.321Z,960.68
2017-07-03T02:56:27.625Z,960.64
2017-07-03T02:57:18.943Z,960.69
2017-07-03T02:58:28.219Z,960.69
2017-07-03T02:59:22.292Z,960.68
2017-07-03T03:00:22.522Z,960.73
2017-07-03T03:01:22.724Z,960.74
2017-07-03T03:02:23.230Z,960.78
2017-07-03T03:03:22.284Z,960.77
2017-07-03T03:04:22.500Z,960.79
2017-07-03T03:05:22.564Z,960.80
2017-07-03T03:06:23.086Z,960.77
2017-07-03T03:07:28.332Z,960.79
2017-07-03T03:08:27.647Z,960.80
2017-07-03T03:09:23.153Z,960.82
2017-07-03T03:10:23.327Z,960.87
2017-07-03T03:11:22.515Z,960.88
2017-07-03T03:12:23.014Z,960.87
2017-07-03T03:13:28.294Z,960.87
2017-07-03T03:14:24.911Z,960.93
2017-07-03T03:15:29.063Z,960.92
2017-07-03T03:16:23.243Z,960.90
2017-07-03T03:17:27.644Z,960.91
2017-07-03T03:18:23.170Z,960.94
2017-07-03T03:19:25.244Z,960.98
2017-07-03T03:20:27.512Z,960.98
2017-07-03T03:21:27.791Z,961.01
2017-07-03T03:22:22.941Z,960.98
2017-07-03T03:23:23.434Z,960.96
2017-07-03T03:24:27.931Z,961.00
2017-07-03T03:25:28.231Z,961.01
2017-07-03T03:26:27.500Z,960.94
2017-07-03T03:27:27.794Z,960.99
2017-07-03T03:28:22.915Z,960.98
2017-07-03T03:29:28.204Z,961.01
2017-07-03T03:30:27.610Z,960.96
2017-07-03T03:31:27.890Z,960.93
2017-07-03T03:32:27.867Z,960.94
2017-07-03T03:33:23.378Z,960.93
2017-07-03T03:34:22.530Z,960.97
2017-07-03T03:35:23.020Z,960.93
2017-07-03T03:36:28.389Z,960.98
2017-07-03T03:37:22.873Z,960.96
2017-07-03T03:38:28.143Z,960.95
2017-07-03T03:39:28.434Z,960.99
2017-07-03T03:40:28.194Z,960.99
2017-07-03T03:41:27.477Z,960.99
2017-07-03T03:42:22.967Z,961.02
2017-07-03T03:43:28.253Z,961.02
2017-07-03T03:44:27.514Z,961.05
2017-07-03T03:45:22.719Z,961.02
2017-07-03T03:46:23.239Z,961.04
2017-07-03T03:47:27.386Z,961.09
2017-07-03T03:48:27.414Z,961.05
2017-07-03T03:49:27.744Z,961.07
2017-07-03T03:50:28.057Z,961.06
2017-07-03T03:51:28.450Z,961.10
2017-07-03T03:52:27.754Z,961.11
2017-07-03T03:53:28.081Z,961.12
2017-07-03T03:54:28.377Z,961.13
2017-07-03T03:55:22.663Z,961.13
2017-07-03T03:56:22.762Z,961.13
2017-07-03T03:57:28.082Z,961.17
2017-07-03T03:58:28.367Z,961.15
2017-07-03T03:59:21.903Z,961.11
2017-07-03T04:00:28.210Z,961.15
2017-07-03T04:01:23.169Z,961.14
2017-07-03T04:02:30.107Z,961.10
2017-07-03T04:03:28.415Z,961.11
2017-07-03T04:04:27.716Z,961.10
2017-07-03T04:05:23.760Z,961.07
2017-07-03T04:06:23.094Z,961.12
2017-07-03T04:07:23.176Z,961.14
2017-07-03T04:08:22.514Z,961.14
2017-07-03T04:09:23.032Z,961.17
2017-07-03T04:10:28.284Z,961.10
2017-07-03T04:11:27.609Z,961.17
2017-07-03T04:12:27.926Z,961.19
2017-07-03T04:13:28.225Z,961.15
2017-07-03T04:14:22.271Z,961.20
2017-07-03T04:15:22.803Z,961.22
2017-07-03T04:16:22.941Z,961.26
2017-07-03T04:17:28.387Z,961.20
2017-07-03T04:18:27.649Z,961.27
2017-07-03T04:19:23.118Z,961.26
2017-07-03T04:20:28.379Z,961.25
2017-07-03T04:21:27.780Z,961.29
2017-07-03T04:22:23.265Z,961.26
2017-07-03T04:23:22.287Z,961.30
2017-07-03T04:24:22.541Z,961.31
2017-07-03T04:25:11.710Z,961.33
2017-07-03T04:26:22.451Z,961.38
2017-07-03T04:27:22.970Z,961.37
2017-07-03T04:28:23.423Z,961.33
2017-07-03T04:29:27.694Z,961.34
2017-07-03T04:30:23.196Z,961.37
2017-07-03T04:31:29.205Z,961.37
2017-07-03T04:32:28.187Z,961.37
2017-07-03T04:33:28.306Z,961.36
2017-07-03T04:34:27.627Z,961.37
2017-07-03T04:35:23.117Z,961.40
2017-07-03T04:36:23.275Z,961.37
2017-07-03T04:37:22.265Z,961.38
2017-07-03T04:38:22.277Z,961.40
2017-07-03T04:39:22.285Z,961.41
2017-07-03T04:40:22.280Z,961.41
2017-07-03T04:41:28.476Z,961.40
2017-07-03T04:42:22.565Z,961.33
2017-07-03T04:43:27.855Z,961.38
2017-07-03T04:44:28.173Z,961.41
2017-07-03T04:45:23.352Z,961.36
2017-07-03T04:46:22.525Z,961.34
2017-07-03T04:47:27.810Z,961.38
2017-07-03T04:48:28.119Z,961.35
2017-07-03T04:49:28.464Z,961.38
2017-07-03T04:50:27.791Z,961.36
2017-07-03T04:51:28.188Z,961.35
2017-07-03T04:52:28.174Z,961.36
2017-07-03T04:53:23.700Z,961.38
2017-07-03T04:54:27.933Z,961.37
2017-07-03T04:55:28.185Z,961.39
2017-07-03T04:56:23.696Z,961.38
2017-07-03T04:57:27.950Z,961.37
2017-07-03T04:58:27.780Z,961.33
2017-07-03T04:59:28.066Z,961.37
2017-07-03T05:00:28.349Z,961.39
2017-07-03T05:01:18.387Z,961.41
2017-07-03T05:02:28.155Z,961.48
2017-07-03T05:03:28.407Z,961.47
2017-07-03T05:04:22.118Z,961.51
2017-07-03T05:05:28.406Z,961.54
2017-07-03T05:06:22.557Z,961.55
2017-07-03T05:07:22.740Z,961.54
2017-07-03T05:08:24.955Z,961.55
2017-07-03T05:09:22.527Z,961.51
2017-07-03T05:10:22.651Z,961.53
2017-07-03T05:11:28.737Z,961.55
2017-07-03T05:12:23.196Z,961.60
2017-07-03T05:13:14.287Z,961.57
2017-07-03T05:14:28.164Z,961.59
2017-07-03T05:15:28.477Z,961.57
2017-07-03T05:16:22.667Z,961.58
2017-07-03T05:17:22.702Z,961.56
2017-07-03T05:18:27.926Z,961.57
2017-07-03T05:19:28.185Z,961.57
2017-07-03T05:20:29.264Z,961.60
2017-07-03T05:21:27.664Z,961.57
2017-07-03T05:22:22.603Z,961.59
2017-07-03T05:23:22.810Z,961.62
2017-07-03T05:24:28.105Z,961.60
2017-07-03T05:25:28.358Z,961.62
2017-07-03T05:26:27.679Z,961.65
2017-07-03T05:27:27.708Z,961.62
2017-07-03T05:28:28.047Z,961.67
2017-07-03T05:29:28.319Z,961.62
2017-07-03T05:30:22.860Z,961.62
2017-07-03T05:31:22.999Z,961.64
2017-07-03T05:32:23.182Z,961.64
2017-07-03T05:33:23.396Z,961.61
2017-07-03T05:34:27.733Z,961.71
2017-07-03T05:35:28.095Z,961.67
2017-07-03T05:36:28.394Z,961.66
2017-07-03T05:37:27.949Z,961.64
2017-07-03T05:38:28.239Z,961.63
2017-07-03T05:39:27.539Z,961.67
2017-07-03T05:40:27.791Z,961.65
2017-07-03T05:41:23.385Z,961.71
2017-07-03T05:42:22.865Z,961.69
2017-07-03T05:43:22.403Z,961.69
2017-07-03T05:44:22.927Z,961.71
2017-07-03T05:45:23.007Z,961.73
2017-07-03T05:46:23.200Z,961.74
2017-07-03T05:47:22.300Z,961.71
2017-07-03T05:48:22.541Z,961.73
2017-07-03T05:49:22.859Z,961.77
2017-07-03T05:50:23.141Z,961.72
2017-07-03T05:51:28.519Z,961.69
2017-07-03T05:52:22.691Z,961.74
2017-07-03T05:53:27.977Z,961.76
2017-07-03T05:54:28.266Z,961.76
2017-07-03T05:55:27.535Z,961.76
2017-07-03T05:56:23.038Z,961.82
2017-07-03T05:57:28.310Z,961.83
2017-07-03T05:58:22.813Z,961.81
2017-07-03T05:59:22.960Z,961.78
2017-07-03T06:00:23.465Z,961.82
2017-07-03T06:01:22.001Z,961.80
2017-07-03T06:02:23.571Z,961.77
2017-07-03T06:03:17.799Z,961.75
2017-07-03T06:04:22.784Z,961.76
2017-07-03T06:05:28.994Z,961.81
2017-07-03T06:06:28.410Z,961.75
2017-07-03T06:07:27.719Z,961.76
2017-07-03T06:08:24.754Z,961.76
2017-07-03T06:09:28.048Z,961.78
2017-07-03T06:10:28.017Z,961.77
2017-07-03T06:11:22.827Z,961.81
2017-07-03T06:12:18.399Z,961.77
2017-07-03T06:13:22.563Z,961.78
2017-07-03T06:14:22.804Z,961.81
2017-07-03T06:15:22.908Z,961.82
2017-07-03T06:16:23.142Z,961.81
2017-07-03T06:17:23.500Z,961.82
2017-07-03T06:18:27.839Z,961.82
2017-07-03T06:19:23.361Z,961.83
2017-07-03T06:20:22.517Z,961.84
2017-07-03T06:21:22.686Z,961.84
2017-07-03T06:22:28.836Z,961.82
2017-07-03T06:23:28.212Z,961.84
2017-07-03T06:24:22.312Z,961.85
2017-07-03T06:25:28.205Z,961.84
2017-07-03T06:26:27.503Z,961.86
2017-07-03T06:27:27.830Z,961.86
2017-07-03T06:28:21.383Z,961.88
2017-07-03T06:29:27.657Z,961.88
2017-07-03T06:30:27.927Z,961.88
2017-07-03T06:31:17.706Z,961.88
2017-07-03T06:32:18.895Z,961.86
2017-07-03T06:33:33.230Z,961.89
2017-07-03T06:34:22.270Z,961.86
2017-07-03T06:35:22.228Z,961.86
2017-07-03T06:36:16.726Z,961.84
2017-07-03T06:37:23.277Z,961.86
2017-07-03T06:38:22.520Z,961.85
2017-07-03T06:39:22.598Z,961.85
2017-07-03T06:40:22.787Z,961.84
2017-07-03T06:41:28.465Z,961.85
2017-07-03T06:42:18.420Z,961.83
2017-07-03T06:43:27.767Z,961.86
2017-07-03T06:44:28.130Z,961.92
2017-07-03T06:45:28.517Z,961.90
2017-07-03T06:46:22.591Z,961.88
2017-07-03T06:47:17.988Z,961.89
2017-07-03T06:48:27.937Z,961.86
2017-07-03T06:49:18.334Z,961.86
2017-07-03T06:50:27.649Z,961.88
2017-07-03T06:51:28.074Z,961.88
2017-07-03T06:52:23.289Z,961.86
2017-07-03T06:53:27.619Z,961.88
2017-07-03T06:54:27.910Z,961.89
2017-07-03T06:55:23.090Z,961.91
2017-07-03T06:56:23.088Z,961.92
2017-07-03T06:57:28.346Z,961.93
2017-07-03T06:58:28.479Z,961.87
2017-07-03T06:59:23.010Z,961.89
2017-07-03T07:00:23.193Z,961.89
2017-07-03T07:01:22.289Z,961.91
2017-07-03T07:02:22.493Z,961.95
2017-07-03T07:03:22.986Z,961.97
2017-07-03T07:04:23.174Z,962.03
2017-07-03T07:05:28.418Z,962.00
2017-07-03T07:06:22.706Z,961.96
2017-07-03T07:07:27.979Z,961.98
2017-07-03T07:08:23.474Z,961.97
2017-07-03T07:09:22.651Z,961.99
2017-07-03T07:10:22.836Z,962.03
2017-07-03T07:11:28.098Z,962.02
2017-07-03T07:12:28.331Z,962.02
2017-07-03T07:13:27.611Z,962.01
2017-07-03T07:14:27.886Z,962.05
2017-07-03T07:15:23.369Z,962.02
2017-07-03T07:16:22.568Z,962.04
2017-07-03T07:17:28.003Z,962.00
2017-07-03T07:18:23.202Z,961.96
2017-07-03T07:19:27.501Z,961.96
2017-07-03T07:20:27.803Z,961.97
2017-07-03T07:21:22.650Z,962.03
2017-07-03T07:22:27.942Z,962.01
2017-07-03T07:23:28.222Z,962.02
2017-07-03T07:24:27.500Z,961.96
2017-07-03T07:25:27.795Z,961.95
2017-07-03T07:26:28.054Z,961.98
2017-07-03T07:27:23.543Z,961.97
2017-07-03T07:28:27.827Z,961.99
2017-07-03T07:29:23.029Z,962.00
2017-07-03T07:30:28.366Z,961.98
2017-07-03T07:31:28.473Z,962.07
2017-07-03T07:32:22.682Z,962.02
2017-07-03T07:33:27.990Z,962.03
2017-07-03T07:34:28.330Z,962.02
2017-07-03T07:35:22.855Z,962.06
2017-07-03T07:36:28.113Z,962.05
2017-07-03T07:37:28.438Z,962.07
2017-07-03T07:38:27.792Z,962.02
2017-07-03T07:39:25.955Z,962.08
2017-07-03T07:40:28.196Z,962.08
2017-07-03T07:41:24.462Z,962.09
2017-07-03T07:42:27.665Z,962.11
2017-07-03T07:43:27.980Z,962.12
2017-07-03T07:44:28.263Z,962.12
2017-07-03T07:45:28.308Z,962.13
2017-07-03T07:46:27.623Z,962.11
2017-07-03T07:47:27.911Z,962.14
2017-07-03T07:48:28.233Z,962.10
2017-07-03T07:49:23.249Z,962.14
2017-07-03T07:50:28.387Z,962.15
2017-07-03T07:51:23.203Z,962.11
2017-07-03T07:52:27.714Z,962.11
2017-07-03T07:53:18.254Z,962.07
2017-07-03T07:54:22.280Z,962.07
2017-07-03T07:55:22.482Z,962.06
2017-07-03T07:56:21.987Z,962.05
2017-07-03T07:57:22.650Z,962.02
2017-07-03T07:58:27.929Z,961.97
2017-07-03T07:59:23.114Z,962.02
2017-07-03T08:00:23.596Z,962.02
2017-07-03T08:01:27.937Z,962.05
2017-07-03T08:02:23.132Z,962.03
2017-07-03T08:03:28.430Z,962.03
2017-07-03T08:04:22.538Z,962.02
2017-07-03T08:05:22.730Z,962.01
2017-07-03T08:06:27.985Z,961.98
2017-07-03T08:07:28.208Z,961.97
2017-07-03T08:08:22.319Z,961.97
2017-07-03T08:09:27.633Z,961.97
2017-07-03T08:10:27.925Z,961.98
2017-07-03T08:11:28.223Z,961.92
2017-07-03T08:12:23.238Z,961.96
2017-07-03T08:13:27.484Z,961.90
2017-07-03T08:14:22.674Z,961.93
2017-07-03T08:15:22.711Z,961.96
2017-07-03T08:16:23.188Z,961.93
2017-07-03T08:17:28.627Z,961.94
2017-07-03T08:18:27.919Z,961.95
2017-07-03T08:19:28.229Z,961.98
2017-07-03T08:20:27.534Z,961.97
2017-07-03T08:21:27.872Z,961.91
2017-07-03T08:22:28.138Z,961.95
2017-07-03T08:23:23.651Z,961.99
2017-07-03T08:24:22.861Z,961.96
2017-07-03T08:25:22.990Z,962.01
2017-07-03T08:26:23.189Z,961.95
2017-07-03T08:27:28.002Z,961.97
2017-07-03T08:28:28.259Z,961.98
2017-07-03T08:29:22.282Z,962.01
2017-07-03T08:30:22.480Z,962.04
2017-07-03T08:31:22.956Z,962.05
2017-07-03T08:32:29.017Z,962.04
2017-07-03T08:33:23.237Z,962.04
2017-07-03T08:34:22.272Z,962.03
2017-07-03T08:35:27.950Z,962.03
2017-07-03T08:36:22.961Z,962.06
2017-07-03T08:37:23.222Z,962.07
2017-07-03T08:38:22.263Z,962.08
2017-07-03T08:39:22.448Z,962.10
2017-07-03T08:40:22.570Z,962.09
2017-07-03T08:41:23.079Z,962.09
2017-07-03T08:42:23.271Z,962.10
2017-07-03T08:43:18.409Z,962.10
2017-07-03T08:44:27.730Z,962.05
2017-07-03T08:45:28.031Z,962.11
2017-07-03T08:46:23.542Z,962.11
2017-07-03T08:47:27.803Z,962.09
2017-07-03T08:48:23.032Z,962.09
2017-07-03T08:49:22.602Z,962.08
2017-07-03T08:50:27.916Z,962.08
2017-07-03T08:51:28.339Z,962.04
2017-07-03T08:52:22.563Z,962.01
2017-07-03T08:53:22.598Z,962.03
2017-07-03T08:54:22.781Z,962.02
2017-07-03T08:55:22.509Z,962.02
2017-07-03T08:56:23.006Z,962.05
2017-07-03T08:57:23.171Z,962.03
2017-07-03T08:58:23.678Z,962.02
2017-07-03T08:59:23.119Z,962.03
2017-07-03T09:00:23.300Z,962.03
2017-07-03T09:01:27.524Z,962.03
2017-07-03T09:02:27.808Z,962.04
2017-07-03T09:03:28.088Z,962.00
2017-07-03T09:04:23.126Z,962.01
2017-07-03T09:05:23.313Z,961.97
2017-07-03T09:06:22.463Z,961.91
2017-07-03T09:07:22.669Z,961.98
2017-07-03T09:08:28.510Z,961.97
2017-07-03T09:09:22.682Z,961.98
2017-07-03T09:10:22.820Z,961.98
2017-07-03T09:11:22.888Z,961.99
2017-07-03T09:12:23.377Z,962.00
2017-07-03T09:13:23.560Z,962.02
2017-07-03T09:14:27.883Z,962.06
2017-07-03T09:15:23.050Z,962.01
2017-07-03T09:16:23.787Z,962.02
2017-07-03T09:17:23.046Z,962.02
2017-07-03T09:18:23.159Z,962.03
2017-07-03T09:19:23.960Z,962.05
2017-07-03T09:20:23.069Z,962.03
2017-07-03T09:21:23.544Z,962.07
2017-07-03T09:22:28.046Z,962.05
2017-07-03T09:23:27.774Z,962.04
2017-07-03T09:24:22.976Z,962.01
2017-07-03T09:25:28.217Z,962.03
2017-07-03T09:26:22.711Z,961.99
2017-07-03T09:27:28.028Z,961.98
2017-07-03T09:28:23.313Z,962.00
2017-07-03T09:29:27.587Z,961.95
2017-07-03T09:30:27.849Z,961.89
2017-07-03T09:31:28.125Z,961.89
2017-07-03T09:32:23.337Z,961.92
2017-07-03T09:33:22.402Z,961.91
2017-07-03T09:34:22.418Z,961.90
2017-07-03T09:35:27.716Z,961.94
2017-07-03T09:36:28.038Z,961.87
2017-07-03T09:37:18.615Z,961.87
2017-07-03T09:38:22.777Z,961.85
2017-07-03T09:39:22.820Z,961.87
2017-07-03T09:40:22.961Z,961.87
2017-07-03T09:41:23.134Z,961.84
2017-07-03T09:42:23.312Z,961.86
2017-07-03T09:43:27.598Z,961.82
2017-07-03T09:44:27.876Z,961.85
2017-07-03T09:45:28.168Z,961.82
2017-07-03T09:46:23.666Z,961.79
2017-07-03T09:47:27.925Z,961.84
2017-07-03T09:48:28.232Z,961.83
2017-07-03T09:49:22.300Z,961.83
2017-07-03T09:50:22.497Z,961.83
2017-07-03T09:51:27.762Z,961.84
2017-07-03T09:52:22.285Z,961.87
2017-07-03T09:53:22.474Z,961.86
2017-07-03T09:54:22.241Z,961.87
2017-07-03T09:55:18.850Z,961.86
2017-07-03T09:56:28.177Z,961.85
2017-07-03T09:57:28.467Z,961.85
2017-07-03T09:58:27.779Z,961.90
2017-07-03T09:59:22.997Z,961.91
2017-07-03T10:00:18.314Z,961.85
2017-07-03T10:01:23.197Z,961.79
2017-07-03T10:02:22.315Z,961.81
2017-07-03T10:03:22.493Z,961.81
2017-07-03T10:04:27.775Z,961.81
2017-07-03T10:05:27.765Z,961.81
2017-07-03T10:06:28.096Z,961.82
2017-07-03T10:07:28.393Z,961.84
2017-07-03T10:08:27.649Z,961.82
2017-07-03T10:09:22.825Z,961.83
2017-07-03T10:10:28.521Z,961.86
2017-07-03T10:15:27.979Z,961.79
2017-07-03T10:16:23.129Z,961.80
2017-07-03T10:17:23.450Z,961.75
2017-07-03T10:18:22.964Z,961.74
2017-07-03T10:19:23.162Z,961.76
2017-07-03T10:20:23.302Z,961.77
2017-07-03T10:21:18.747Z,961.78
2017-07-03T10:22:23.438Z,961.79
2017-07-03T10:23:22.635Z,961.77
2017-07-03T10:24:22.848Z,961.74
2017-07-03T10:25:18.220Z,961.75
2017-07-03T10:26:27.557Z,961.74
2017-07-03T10:27:22.687Z,961.73
2017-07-03T10:28:22.912Z,961.70
2017-07-03T10:29:23.416Z,961.70
2017-07-03T10:30:22.690Z,961.73
2017-07-03T10:31:22.919Z,961.66
2017-07-03T10:32:23.414Z,961.66
2017-07-03T10:33:22.609Z,961.62
2017-07-03T10:34:22.680Z,961.58
2017-07-03T10:35:22.249Z,961.61
2017-07-03T10:36:27.667Z,961.58
2017-07-03T10:37:23.680Z,961.57
2017-07-03T10:38:22.890Z,961.59
2017-07-03T10:39:28.185Z,961.60
2017-07-03T10:40:27.527Z,961.61
2017-07-03T10:41:27.809Z,961.56
2017-07-03T10:42:23.337Z,961.62
2017-07-03T10:43:27.638Z,961.62
2017-07-03T10:44:22.671Z,961.59
2017-07-03T10:45:22.886Z,961.59
2017-07-03T10:46:28.153Z,961.53
2017-07-03T10:47:23.288Z,961.58
2017-07-03T10:48:27.584Z,961.56
2017-07-03T10:49:22.710Z,961.53
2017-07-03T10:50:23.230Z,961.53
2017-07-03T10:51:27.506Z,961.53
2017-07-03T10:52:27.838Z,961.54
2017-07-03T10:53:28.146Z,961.52
2017-07-03T10:54:28.437Z,961.47
2017-07-03T10:55:22.886Z,961.51
2017-07-03T10:56:28.251Z,961.49
2017-07-03T10:57:30.878Z,961.51
2017-07-03T10:58:27.886Z,961.49
2017-07-03T10:59:28.139Z,961.50
2017-07-03T11:00:28.249Z,961.50
2017-07-03T11:01:18.249Z,961.47
2017-07-03T11:02:27.528Z,961.47
2017-07-03T11:03:27.820Z,961.44
2017-07-03T11:04:23.024Z,961.40
2017-07-03T11:05:10.484Z,961.42
2017-07-03T11:06:27.943Z,961.45
2017-07-03T11:07:28.221Z,961.44
2017-07-03T11:08:22.334Z,961.42
2017-07-03T11:09:28.446Z,961.38
2017-07-03T11:10:22.692Z,961.36
2017-07-03T11:11:27.958Z,961.42
2017-07-03T11:12:23.453Z,961.41
2017-07-03T11:13:22.534Z,961.40
2017-07-03T11:14:23.103Z,961.31
2017-07-03T11:15:29.566Z,961.29
2017-07-03T11:16:23.095Z,961.30
2017-07-03T11:17:28.477Z,961.32
2017-07-03T11:18:27.774Z,961.29
2017-07-03T11:19:23.271Z,961.35
2017-07-03T11:20:22.408Z,961.33
2017-07-03T11:22:28.177Z,961.35
2017-07-03T11:23:23.322Z,961.30
2017-07-03T11:24:27.607Z,961.32
2017-07-03T11:25:28.402Z,961.29
2017-07-03T11:26:27.784Z,961.29
2017-07-03T11:27:23.238Z,961.31
2017-07-03T11:28:22.306Z,961.25
2017-07-03T11:29:22.501Z,961.18
2017-07-03T11:30:22.729Z,961.24
2017-07-03T11:31:22.258Z,961.24
2017-07-03T11:32:27.553Z,961.25
2017-07-03T11:33:22.782Z,961.26
2017-07-03T11:34:22.982Z,961.22
2017-07-03T11:35:28.236Z,961.25
2017-07-03T11:36:27.502Z,961.23
2017-07-03T11:37:27.779Z,961.22
2017-07-03T11:38:28.282Z,961.26
2017-07-03T11:39:22.797Z,961.23
2017-07-03T11:40:27.773Z,961.20
2017-07-03T11:41:28.155Z,961.19
2017-07-03T11:42:23.116Z,961.16
2017-07-03T11:43:28.378Z,961.19
2017-07-03T11:44:22.911Z,961.17
2017-07-03T11:45:28.112Z,961.18
2017-07-03T11:46:23.194Z,961.17
2017-07-03T11:47:27.505Z,961.17
2017-07-03T11:48:22.991Z,961.14
2017-07-03T11:49:23.181Z,961.15
2017-07-03T11:50:23.650Z,961.16
2017-07-03T11:51:22.830Z,961.16
2017-07-03T11:52:28.146Z,961.16
2017-07-03T11:53:28.437Z,961.10
2017-07-03T11:54:27.734Z,961.11
2017-07-03T11:55:23.286Z,961.19
2017-07-03T11:56:22.517Z,961.07
2017-07-03T11:57:28.216Z,961.12
2017-07-03T11:58:27.578Z,961.09
2017-07-03T11:59:28.064Z,961.10
2017-07-03T12:00:28.349Z,961.04
2017-07-03T12:01:22.513Z,961.03
2017-07-03T12:02:27.805Z,961.01
2017-07-03T12:03:28.088Z,961.03
2017-07-03T12:04:23.251Z,961.00
2017-07-03T12:05:27.522Z,961.02
2017-07-03T12:06:27.748Z,961.02
2017-07-03T12:07:28.046Z,961.00
2017-07-03T12:08:28.380Z,960.98
2017-07-03T12:09:27.702Z,960.96
2017-07-03T12:10:23.201Z,960.93
2017-07-03T12:11:24.350Z,961.00
2017-07-03T12:12:22.827Z,960.97
2017-07-03T12:13:23.298Z,961.01
2017-07-03T12:14:18.460Z,960.96
2017-07-03T12:15:22.635Z,960.99
2017-07-03T12:16:17.412Z,961.00
2017-07-03T12:17:28.249Z,960.96
2017-07-03T12:18:27.498Z,961.00
2017-07-03T12:19:22.988Z,960.99
2017-07-03T12:20:28.245Z,960.94
2017-07-03T12:21:22.297Z,960.92
2017-07-03T12:22:27.566Z,960.89
2017-07-03T12:23:23.045Z,960.88
2017-07-03T12:24:28.307Z,960.88
2017-07-03T12:25:22.808Z,960.84
2017-07-03T12:26:28.083Z,960.78
2017-07-03T12:27:28.392Z,960.80
2017-07-03T12:28:27.962Z,960.83
2017-07-03T12:29:28.257Z,960.81
2017-07-03T12:30:22.775Z,960.79
2017-07-03T12:31:28.027Z,960.79
2017-07-03T12:32:23.135Z,960.77
2017-07-03T12:33:23.354Z,960.79